Allen's Hourly Summary for Saturday, March 18, 2017
Hour Temp
(f)
RH
(%)
Solar Rad.
(MJ/m2)
Rainfall
(in)
Wind
(mph)
3/18/2017 12:00 AM 69 65 0 0 1.67
3/18/2017 1:00 AM 67 70 0 0 4.28
3/18/2017 2:00 AM 67 70 0 0 5.55
3/18/2017 3:00 AM 65 76 0 0 4.04
3/18/2017 4:00 AM 64 81 0 0 3.86
3/18/2017 5:00 AM 63 84 0 0 3.44
3/18/2017 6:00 AM 62 88 0 0 3.05
3/18/2017 7:00 AM 62 90 0 0 2.94
3/18/2017 8:00 AM 62 89 0.01 0 3.26
3/18/2017 9:00 AM 63 89 0.13 0 3.32
3/18/2017 10:00 AM 64 84 0.35 0 2.02
3/18/2017 11:00 AM 66 77 0.74 0 1.49
3/18/2017 12:00 PM 69 69 1.45 0 1.05
3/18/2017 1:00 PM 72 63 2.3 0 1.4
3/18/2017 2:00 PM 73 63 2.46 0 2.5
3/18/2017 3:00 PM 73 61 2.92 0 3.33
3/18/2017 4:00 PM 76 55 2.54 0 3.05
3/18/2017 5:00 PM 78 53 1.89 0 3.86
3/18/2017 6:00 PM 78 54 0.96 0 4.22
3/18/2017 7:00 PM 76 55 0.31 0 4.64
3/18/2017 8:00 PM 74 59 0.04 0 3.89
3/18/2017 9:00 PM 72 65 0 0 2.36
3/18/2017 10:00 PM 69 70 0 0 1.03
3/18/2017 11:00 PM 67 74 0 0 0.11
Data Summary 68 71 16.10 0.00 2.93